createdAt,value
2022-10-22T00:01:07.307Z,1.67
2022-10-22T00:03:34.221Z,1.58
2022-10-22T00:06:00.974Z,2.63
2022-10-22T00:08:28.095Z,1.15
2022-10-22T00:10:55.004Z,2.47
2022-10-22T00:13:21.886Z,0.57
2022-10-22T00:15:48.942Z,2.33
2022-10-22T00:18:15.809Z,0.43
2022-10-22T00:20:43.390Z,1.40
2022-10-22T00:23:10.159Z,1.33
2022-10-22T00:25:36.939Z,0.88
2022-10-22T00:28:04.121Z,0.90
2022-10-22T00:30:30.954Z,1.17
2022-10-22T00:32:57.717Z,1.92
2022-10-22T00:35:24.543Z,0.77
2022-10-22T00:37:51.298Z,1.40
2022-10-22T00:40:18.113Z,1.00
2022-10-22T00:42:44.925Z,3.03
2022-10-22T00:45:11.631Z,1.55
2022-10-22T00:47:51.214Z,0.98
2022-10-22T00:50:26.567Z,3.30
2022-10-22T00:52:55.005Z,0.85
2022-10-22T00:55:23.736Z,1.42
2022-10-22T00:57:51.233Z,1.55
2022-10-22T01:00:18.403Z,1.40
2022-10-22T01:02:45.584Z,2.08
2022-10-22T01:05:12.645Z,2.00
2022-10-22T01:07:45.117Z,2.42
2022-10-22T01:10:54.522Z,0.98
2022-10-22T01:13:51.267Z,1.50
2022-10-22T01:16:28.370Z,1.88
2022-10-22T01:19:25.518Z,2.17
2022-10-22T01:21:58.593Z,1.98
2022-10-22T01:24:47.966Z,4.45
2022-10-22T01:27:40.914Z,2.85
2022-10-22T01:30:13.854Z,1.13
2022-10-22T01:32:51.411Z,0.85
2022-10-22T01:35:26.807Z,3.83
2022-10-22T01:37:57.653Z,0.75
2022-10-22T01:40:26.200Z,2.53
2022-10-22T01:43:01.542Z,1.10
2022-10-22T01:45:33.135Z,0.68
2022-10-22T01:47:59.803Z,0.88
2022-10-22T01:50:40.367Z,1.55
2022-10-22T01:53:12.853Z,3.05
2022-10-22T01:56:06.168Z,0.88
2022-10-22T01:58:42.437Z,0.93
2022-10-22T02:01:23.644Z,1.25
2022-10-22T02:04:17.088Z,3.88
2022-10-22T02:06:46.703Z,1.40
2022-10-22T02:09:17.770Z,3.75
2022-10-22T02:11:45.720Z,2.53
2022-10-22T02:14:13.737Z,0.90
2022-10-22T02:16:43.909Z,1.88
2022-10-22T02:19:22.874Z,1.33
2022-10-22T02:21:49.659Z,3.10
2022-10-22T02:24:17.573Z,1.83
2022-10-22T02:27:08.506Z,0.85
2022-10-22T02:29:43.827Z,0.73
2022-10-22T02:32:15.005Z,0.57
2022-10-22T02:34:42.047Z,1.38
2022-10-22T02:37:09.459Z,1.77
2022-10-22T02:39:37.740Z,2.33
2022-10-22T02:42:04.555Z,1.63
2022-10-22T02:44:31.652Z,2.55
2022-10-22T02:46:59.230Z,1.02
2022-10-22T02:49:26.058Z,0.77
2022-10-22T02:51:52.854Z,0.30
2022-10-22T02:54:19.594Z,1.90
2022-10-22T02:56:46.393Z,1.77
2022-10-22T02:59:13.370Z,1.58
2022-10-22T03:01:40.227Z,1.20
2022-10-22T03:04:07.238Z,1.70
2022-10-22T03:06:33.999Z,2.97
2022-10-22T03:09:00.976Z,1.77
2022-10-22T03:11:27.830Z,1.10
2022-10-22T03:13:54.559Z,0.82
2022-10-22T03:16:21.266Z,0.57
2022-10-22T03:18:47.982Z,6.18
2022-10-22T03:21:30.672Z,0.45
2022-10-22T03:23:58.196Z,2.13
2022-10-22T03:26:25.326Z,0.93
2022-10-22T03:28:52.300Z,0.47
2022-10-22T03:31:19.070Z,4.03
2022-10-22T03:33:45.785Z,1.80
2022-10-22T03:36:12.524Z,0.93
2022-10-22T03:38:40.811Z,1.85
2022-10-22T03:41:08.006Z,0.57
2022-10-22T03:43:37.239Z,1.23
2022-10-22T03:46:04.084Z,1.23
2022-10-22T03:48:30.875Z,0.90
2022-10-22T03:50:57.652Z,1.63
2022-10-22T03:53:24.371Z,2.30
2022-10-22T03:55:51.157Z,1.65
2022-10-22T03:58:18.074Z,1.05
2022-10-22T04:00:44.902Z,2.90
2022-10-22T04:03:11.734Z,2.78
2022-10-22T04:05:38.474Z,1.52
2022-10-22T04:08:05.233Z,0.60
2022-10-22T04:10:32.001Z,2.80
2022-10-22T04:12:58.876Z,1.52
2022-10-22T04:15:28.123Z,5.15
2022-10-22T04:17:55.226Z,3.25
2022-10-22T04:20:21.979Z,0.80
2022-10-22T04:22:48.780Z,0.82
2022-10-22T04:25:15.555Z,2.45
2022-10-22T04:27:42.497Z,1.73
2022-10-22T04:30:10.031Z,0.60
2022-10-22T04:32:36.765Z,1.60
2022-10-22T04:35:03.922Z,1.10
2022-10-22T04:37:30.710Z,1.40
2022-10-22T04:39:58.282Z,0.88
2022-10-22T04:42:25.375Z,3.20
2022-10-22T04:44:52.119Z,0.60
2022-10-22T04:47:18.926Z,2.50
2022-10-22T04:49:45.646Z,0.80
2022-10-22T04:52:12.673Z,1.42
2022-10-22T04:54:39.455Z,2.13
2022-10-22T04:57:06.256Z,0.75
2022-10-22T04:59:32.987Z,1.83
2022-10-22T05:01:59.747Z,3.58
2022-10-22T05:04:26.593Z,0.93
2022-10-22T05:06:53.364Z,1.23
2022-10-22T05:09:21.578Z,1.95
2022-10-22T05:11:51.478Z,3.90
2022-10-22T05:14:20.859Z,5.32
2022-10-22T05:16:48.718Z,2.67
2022-10-22T05:19:19.576Z,4.57
2022-10-22T05:21:46.519Z,1.63
2022-10-22T05:24:13.529Z,0.85
2022-10-22T05:26:40.432Z,1.02
2022-10-22T05:29:07.169Z,1.85
2022-10-22T05:31:34.406Z,2.05
2022-10-22T05:34:01.148Z,1.00
2022-10-22T05:36:28.317Z,4.57
2022-10-22T05:38:55.152Z,1.63
2022-10-22T05:41:24.004Z,1.52
2022-10-22T05:43:51.559Z,3.05
2022-10-22T05:46:22.826Z,0.85
2022-10-22T05:48:58.273Z,2.17
2022-10-22T05:51:28.058Z,2.10
2022-10-22T05:53:58.415Z,2.25
2022-10-22T05:56:26.674Z,1.35
2022-10-22T05:58:53.766Z,0.57
2022-10-22T06:01:23.970Z,0.50
2022-10-22T06:03:54.521Z,1.58
2022-10-22T06:06:24.084Z,1.13
2022-10-22T06:08:52.747Z,3.85
2022-10-22T06:11:21.255Z,0.68
2022-10-22T06:13:49.150Z,1.55
2022-10-22T06:16:16.245Z,4.95
2022-10-22T06:18:43.402Z,3.08
2022-10-22T06:21:14.889Z,2.60
2022-10-22T06:23:42.564Z,2.45
2022-10-22T06:26:09.994Z,5.28
2022-10-22T06:28:37.008Z,1.10
2022-10-22T06:31:05.295Z,2.13
2022-10-22T06:33:34.086Z,2.90
2022-10-22T06:36:08.923Z,0.45
2022-10-22T06:38:35.681Z,1.92
2022-10-22T06:41:04.570Z,0.85
2022-10-22T06:43:31.646Z,1.83
2022-10-22T06:46:09.842Z,0.65
2022-10-22T06:48:38.064Z,1.17
2022-10-22T06:51:15.231Z,2.03
2022-10-22T06:53:42.295Z,2.28
2022-10-22T06:56:14.940Z,0.63
2022-10-22T06:58:42.191Z,0.32
2022-10-22T07:01:13.606Z,1.88
2022-10-22T07:03:41.686Z,1.67
2022-10-22T07:06:10.824Z,3.03
2022-10-22T07:08:38.566Z,4.75
2022-10-22T07:11:11.139Z,1.80
2022-10-22T07:13:38.159Z,1.75
2022-10-22T07:16:06.521Z,1.15
2022-10-22T07:18:34.484Z,1.27
2022-10-22T07:21:02.029Z,3.03
2022-10-22T07:23:29.229Z,2.35
2022-10-22T07:28:23.879Z,1.73
2022-10-22T07:30:50.605Z,1.45
2022-10-22T07:33:17.336Z,1.92
2022-10-22T07:35:44.188Z,2.38
2022-10-22T07:38:10.991Z,1.38
2022-10-22T07:40:38.079Z,1.38
2022-10-22T07:43:05.338Z,6.65
2022-10-22T07:45:32.134Z,0.93
2022-10-22T07:48:00.497Z,1.05
2022-10-22T07:50:27.243Z,0.93
2022-10-22T07:52:56.071Z,1.90
2022-10-22T07:55:25.380Z,2.08
2022-10-22T07:57:52.283Z,1.33
2022-10-22T08:00:21.732Z,1.80
2022-10-22T08:02:51.277Z,3.65
2022-10-22T08:05:18.096Z,3.03
2022-10-22T08:07:44.971Z,2.53
2022-10-22T08:10:12.543Z,0.80
2022-10-22T08:12:40.599Z,1.05
2022-10-22T08:15:08.459Z,3.17
2022-10-22T08:17:35.366Z,2.60
2022-10-22T08:20:02.292Z,0.85
2022-10-22T08:22:29.128Z,2.90
2022-10-22T08:24:55.883Z,3.25
2022-10-22T08:27:22.787Z,3.08
2022-10-22T08:29:49.659Z,1.45
2022-10-22T08:32:16.501Z,6.70
2022-10-22T08:34:43.325Z,2.28
2022-10-22T08:37:14.204Z,1.80
2022-10-22T08:39:41.551Z,2.72
2022-10-22T08:42:23.655Z,1.70
2022-10-22T08:45:11.978Z,1.88
2022-10-22T08:48:23.127Z,3.28
2022-10-22T08:50:54.527Z,4.65
2022-10-22T08:54:05.723Z,3.45
2022-10-22T08:56:35.409Z,2.15
2022-10-22T08:59:31.771Z,1.35
2022-10-22T09:01:58.577Z,3.28
2022-10-22T09:04:28.536Z,1.83
2022-10-22T09:06:58.414Z,1.40
2022-10-22T09:09:31.471Z,1.42
2022-10-22T09:12:00.117Z,1.80
2022-10-22T09:14:27.291Z,1.65
2022-10-22T09:17:11.914Z,2.38
2022-10-22T09:20:09.301Z,2.13
2022-10-22T09:22:42.568Z,2.63
2022-10-22T09:25:20.436Z,2.50
2022-10-22T09:27:48.846Z,4.43
2022-10-22T09:30:24.095Z,1.20
2022-10-22T09:33:16.270Z,1.33
2022-10-22T09:35:56.009Z,3.40
2022-10-22T09:38:28.404Z,3.92
2022-10-22T09:40:57.274Z,1.13
2022-10-22T09:43:24.317Z,1.42
2022-10-22T09:46:00.109Z,2.13
2022-10-22T09:48:37.301Z,3.75
2022-10-22T09:51:24.791Z,1.70
2022-10-22T09:54:00.951Z,1.80
2022-10-22T09:56:32.464Z,2.10
2022-10-22T09:58:59.362Z,2.13
2022-10-22T10:01:38.570Z,1.30
2022-10-22T10:04:09.819Z,1.10
2022-10-22T10:06:41.482Z,1.35
2022-10-22T10:09:18.436Z,2.03
2022-10-22T10:12:03.560Z,1.70
2022-10-22T10:14:49.039Z,4.38
2022-10-22T10:17:36.221Z,3.65
2022-10-22T10:20:24.757Z,2.85
2022-10-22T10:23:18.602Z,4.60
2022-10-22T10:26:08.484Z,2.33
2022-10-22T10:29:07.421Z,2.92
2022-10-22T10:31:53.033Z,5.97
2022-10-22T10:34:36.194Z,2.83
2022-10-22T10:37:38.409Z,2.35
2022-10-22T10:40:26.998Z,2.40
2022-10-22T10:43:10.365Z,2.15
2022-10-22T10:45:42.835Z,2.03
2022-10-22T10:48:30.117Z,4.18
2022-10-22T10:51:20.894Z,1.67
2022-10-22T10:54:08.284Z,3.53
2022-10-22T10:57:12.565Z,2.13
2022-10-22T11:00:08.899Z,2.28
2022-10-22T11:02:51.027Z,4.70
2022-10-22T11:05:48.385Z,4.88
2022-10-22T11:08:30.413Z,2.95
2022-10-22T11:11:13.083Z,2.33
2022-10-22T11:13:49.522Z,4.15
2022-10-22T11:16:37.843Z,3.28
2022-10-22T11:19:39.607Z,2.47
2022-10-22T11:22:26.974Z,4.57
2022-10-22T11:25:13.090Z,5.03
2022-10-22T11:27:50.742Z,4.55
2022-10-22T11:30:23.437Z,2.58
2022-10-22T11:33:02.936Z,3.95
2022-10-22T11:35:40.252Z,1.50
2022-10-22T11:38:12.974Z,3.55
2022-10-22T11:40:47.254Z,7.50
2022-10-22T11:43:51.380Z,2.45
2022-10-22T11:46:18.340Z,6.68
2022-10-22T11:49:00.421Z,2.95
2022-10-22T11:51:38.944Z,2.78
2022-10-22T11:54:42.193Z,2.40
2022-10-22T11:57:14.707Z,3.17
2022-10-22T11:59:49.736Z,2.65
2022-10-22T12:02:28.547Z,4.50
2022-10-22T12:05:15.999Z,3.65
2022-10-22T12:07:54.419Z,3.17
2022-10-22T12:10:34.501Z,4.03
2022-10-22T12:13:22.926Z,1.60
2022-10-22T12:15:54.156Z,3.72
2022-10-22T12:18:28.114Z,3.22
2022-10-22T12:20:55.552Z,4.75
2022-10-22T12:23:29.885Z,2.25
2022-10-22T12:25:57.988Z,2.63
2022-10-22T12:28:24.746Z,2.33
2022-10-22T12:30:51.552Z,1.70
2022-10-22T12:33:21.535Z,3.58
2022-10-22T12:35:52.883Z,4.35
2022-10-22T12:38:25.626Z,3.35
2022-10-22T12:40:56.141Z,3.75
2022-10-22T12:43:29.704Z,4.70
2022-10-22T12:45:58.944Z,2.72
2022-10-22T12:48:30.664Z,5.85
2022-10-22T12:51:00.207Z,1.73
2022-10-22T12:53:37.633Z,3.03
2022-10-22T12:56:07.477Z,5.88
2022-10-22T12:58:59.051Z,3.90
2022-10-22T13:01:29.603Z,3.97
2022-10-22T13:04:24.126Z,2.10
2022-10-22T13:06:54.502Z,5.00
2022-10-22T13:09:26.895Z,3.08
2022-10-22T13:12:01.606Z,3.05
2022-10-22T13:14:33.005Z,3.47
2022-10-22T13:17:16.076Z,4.10
2022-10-22T13:19:54.701Z,4.32
2022-10-22T13:22:26.185Z,4.18
2022-10-22T13:24:53.401Z,5.43
2022-10-22T13:27:20.413Z,3.75
2022-10-22T13:29:47.145Z,3.60
2022-10-22T13:32:32.168Z,0.93
2022-10-22T13:35:03.935Z,2.65
2022-10-22T13:37:32.867Z,2.58
2022-10-22T13:40:00.013Z,6.97
2022-10-22T13:42:26.770Z,3.78
2022-10-22T13:44:53.485Z,2.13
2022-10-22T13:47:28.972Z,3.40
2022-10-22T13:49:58.654Z,3.78
2022-10-22T13:52:38.663Z,2.55
2022-10-22T13:55:26.679Z,5.20
2022-10-22T14:00:52.493Z,2.72
2022-10-22T14:03:22.583Z,2.00
2022-10-22T14:05:49.937Z,5.10
2022-10-22T14:08:19.739Z,8.32
2022-10-22T14:10:47.125Z,4.22
2022-10-22T14:13:15.691Z,3.85
2022-10-22T14:15:45.229Z,2.22
2022-10-22T14:18:24.056Z,3.75
2022-10-22T14:20:53.733Z,4.53
2022-10-22T14:23:21.997Z,2.95
2022-10-22T14:25:51.013Z,1.75
2022-10-22T14:28:18.426Z,2.75
2022-10-22T14:30:45.808Z,3.53
2022-10-22T14:33:17.316Z,4.07
2022-10-22T14:35:44.078Z,3.53
2022-10-22T14:38:10.956Z,2.75
2022-10-22T14:40:39.285Z,7.47
2022-10-22T14:43:06.283Z,5.40
2022-10-22T14:45:33.188Z,2.88
2022-10-22T14:48:00.098Z,3.40
2022-10-22T14:50:26.858Z,3.25
2022-10-22T14:52:53.640Z,5.85
2022-10-22T14:55:20.622Z,6.45
2022-10-22T14:57:47.389Z,3.72
2022-10-22T15:00:18.473Z,2.67
2022-10-22T15:02:45.585Z,1.52
2022-10-22T15:05:12.920Z,1.85
2022-10-22T15:07:40.189Z,3.25
2022-10-22T15:10:07.990Z,3.95
2022-10-22T15:12:34.753Z,3.05
2022-10-22T15:15:01.603Z,5.45
2022-10-22T15:17:28.385Z,3.42
2022-10-22T15:19:56.367Z,1.98
2022-10-22T15:22:23.164Z,2.38
2022-10-22T15:24:49.986Z,4.00
2022-10-22T15:27:16.715Z,2.95
2022-10-22T15:29:43.757Z,3.78
2022-10-22T15:32:10.558Z,2.90
2022-10-22T15:34:39.121Z,3.42
2022-10-22T15:37:12.216Z,5.90
2022-10-22T15:39:42.526Z,4.13
2022-10-22T15:42:09.961Z,4.50
2022-10-22T15:44:37.206Z,3.65
2022-10-22T15:47:04.971Z,2.47
2022-10-22T15:49:32.312Z,4.05
2022-10-22T15:51:59.123Z,3.72
2022-10-22T15:54:44.157Z,2.20
2022-10-22T15:57:10.991Z,4.28
2022-10-22T15:59:37.817Z,3.80
2022-10-22T16:02:04.898Z,6.28
2022-10-22T16:04:31.624Z,5.25
2022-10-22T16:06:58.609Z,4.15
2022-10-22T16:09:27.240Z,5.68
2022-10-22T16:11:55.085Z,7.93
2022-10-22T16:14:23.502Z,7.05
2022-10-22T16:16:53.158Z,5.88
2022-10-22T16:19:22.155Z,8.95
2022-10-22T16:21:51.178Z,5.55
2022-10-22T16:24:18.672Z,12.63
2022-10-22T16:26:46.025Z,7.50
2022-10-22T16:29:12.964Z,8.07
2022-10-22T16:31:41.112Z,6.75
2022-10-22T16:34:08.089Z,3.95
2022-10-22T16:36:36.326Z,5.60
2022-10-22T16:39:03.878Z,3.72
2022-10-22T16:41:35.287Z,4.90
2022-10-22T16:44:06.062Z,10.10
2022-10-22T16:46:33.693Z,10.02
2022-10-22T16:49:00.597Z,6.85
2022-10-22T16:51:28.215Z,6.20
2022-10-22T16:53:56.796Z,6.40
2022-10-22T16:56:24.833Z,6.72
2022-10-22T16:58:54.648Z,5.28
2022-10-22T17:01:24.197Z,12.15
2022-10-22T17:03:50.992Z,10.02
2022-10-22T17:06:17.805Z,8.90
2022-10-22T17:08:44.636Z,8.68
2022-10-22T17:11:17.192Z,9.32
2022-10-22T17:13:46.249Z,11.40
2022-10-22T17:16:14.816Z,10.15
2022-10-22T17:21:18.269Z,46.78
2022-10-22T17:23:45.257Z,42.85
2022-10-22T17:26:21.556Z,24.10
2022-10-22T17:28:48.794Z,13.10
2022-10-22T17:31:27.391Z,9.05
2022-10-22T17:33:55.726Z,9.38
2022-10-22T17:36:23.619Z,7.40
2022-10-22T17:38:53.776Z,6.80
2022-10-22T17:41:23.212Z,6.63
2022-10-22T17:43:50.373Z,14.05
2022-10-22T17:46:29.054Z,10.25
2022-10-22T17:48:58.530Z,8.55
2022-10-22T17:51:26.863Z,4.18
2022-10-22T17:53:53.933Z,10.95
2022-10-22T17:56:26.265Z,6.53
2022-10-22T17:58:53.373Z,4.80
2022-10-22T18:01:25.151Z,5.82
2022-10-22T18:03:58.870Z,8.50
2022-10-22T18:06:25.679Z,6.88
2022-10-22T18:11:26.347Z,6.10
2022-10-22T18:13:55.777Z,4.93
2022-10-22T18:16:22.690Z,4.30
2022-10-22T18:18:53.080Z,5.50
2022-10-22T18:21:20.807Z,5.45
2022-10-22T18:23:48.159Z,4.35
2022-10-22T18:26:15.594Z,6.40
2022-10-22T18:28:42.569Z,6.03
2022-10-22T18:31:13.543Z,4.45
2022-10-22T18:33:40.834Z,7.93
2022-10-22T18:36:14.487Z,7.55
2022-10-22T18:38:41.279Z,6.07
2022-10-22T18:41:09.846Z,7.70
2022-10-22T18:43:37.043Z,9.65
2022-10-22T18:46:07.129Z,11.05
2022-10-22T18:48:37.716Z,7.55
2022-10-22T18:51:08.215Z,7.95
2022-10-22T18:53:36.326Z,6.80
2022-10-22T18:56:08.150Z,8.15
2022-10-22T18:58:39.793Z,5.57
2022-10-22T19:01:21.388Z,8.95
2022-10-22T19:03:49.036Z,3.97
2022-10-22T19:06:17.600Z,5.03
2022-10-22T19:08:46.843Z,5.78
2022-10-22T19:11:17.539Z,5.47
2022-10-22T19:13:44.271Z,4.85
2022-10-22T19:16:15.962Z,7.18
2022-10-22T19:18:42.680Z,3.67
2022-10-22T19:21:09.543Z,4.93
2022-10-22T19:23:36.302Z,7.30
2022-10-22T19:26:06.710Z,6.53
2022-10-22T19:28:33.758Z,6.35
2022-10-22T19:31:00.501Z,5.18
2022-10-22T19:33:27.758Z,4.70
2022-10-22T19:35:54.483Z,7.10
2022-10-22T19:38:21.272Z,6.05
2022-10-22T19:40:48.246Z,5.78
2022-10-22T19:43:18.175Z,5.43
2022-10-22T19:45:45.798Z,14.70
2022-10-22T19:48:12.551Z,6.22
2022-10-22T19:50:39.319Z,6.50
2022-10-22T19:53:06.062Z,6.28
2022-10-22T19:55:32.867Z,4.70
2022-10-22T19:57:59.600Z,6.28
2022-10-22T20:00:28.317Z,6.43
2022-10-22T20:02:55.026Z,6.65
2022-10-22T20:07:53.502Z,5.00
2022-10-22T20:10:20.237Z,11.60
2022-10-22T20:12:46.963Z,3.65
2022-10-22T20:15:14.178Z,6.32
2022-10-22T20:17:41.176Z,6.82
2022-10-22T20:20:08.317Z,7.55
2022-10-22T20:22:35.074Z,4.68
2022-10-22T20:25:01.843Z,4.75
2022-10-22T20:27:28.602Z,3.65
2022-10-22T20:29:55.342Z,4.25
2022-10-22T20:32:24.095Z,4.07
2022-10-22T20:34:50.902Z,9.20
2022-10-22T20:37:17.622Z,3.67
2022-10-22T20:39:44.523Z,6.20
2022-10-22T20:42:11.325Z,6.75
2022-10-22T20:44:38.056Z,6.15
2022-10-22T20:47:04.902Z,11.65
2022-10-22T20:49:32.863Z,7.05
2022-10-22T20:51:59.799Z,6.20
2022-10-22T20:54:26.700Z,7.05
2022-10-22T20:56:53.773Z,9.20
2022-10-22T20:59:21.061Z,6.72
2022-10-22T21:01:50.170Z,9.15
2022-10-22T21:04:19.489Z,5.53
2022-10-22T21:06:46.370Z,8.18
2022-10-22T21:09:14.530Z,6.68
2022-10-22T21:11:43.103Z,4.78
2022-10-22T21:14:11.541Z,5.95
2022-10-22T21:16:44.723Z,7.30
2022-10-22T21:21:38.276Z,5.13
2022-10-22T21:24:05.121Z,12.30
2022-10-22T21:26:31.910Z,4.95
2022-10-22T21:28:58.637Z,4.38
2022-10-22T21:31:26.328Z,5.82
2022-10-22T21:33:53.825Z,6.60
2022-10-22T21:36:23.207Z,4.93
2022-10-22T21:38:52.106Z,6.47
2022-10-22T21:41:20.660Z,9.48
2022-10-22T21:43:47.402Z,7.65
2022-10-22T21:46:20.262Z,6.57
2022-10-22T21:48:47.872Z,6.22
2022-10-22T21:51:17.755Z,4.78
2022-10-22T21:53:45.384Z,4.65
2022-10-22T21:56:20.708Z,6.97
2022-10-22T21:58:47.850Z,6.28
2022-10-22T22:01:15.592Z,6.72
2022-10-22T22:03:45.127Z,6.00
2022-10-22T22:06:12.550Z,11.27
2022-10-22T22:08:40.090Z,6.07
2022-10-22T22:11:12.707Z,5.15
2022-10-22T22:13:40.041Z,6.13
2022-10-22T22:16:09.867Z,6.82
2022-10-22T22:18:37.299Z,12.65
2022-10-22T22:21:06.958Z,6.60
2022-10-22T22:23:35.937Z,6.40
2022-10-22T22:26:03.279Z,7.70
2022-10-22T22:28:31.032Z,11.02
2022-10-22T22:30:58.246Z,8.13
2022-10-22T22:33:25.614Z,7.70
2022-10-22T22:35:52.578Z,12.45
2022-10-22T22:38:19.339Z,7.82
2022-10-22T22:40:46.047Z,11.98
2022-10-22T22:43:12.789Z,11.65
2022-10-22T22:45:40.726Z,6.10
2022-10-22T22:48:07.964Z,8.13
2022-10-22T22:50:36.636Z,3.40
2022-10-22T22:53:03.391Z,4.43
2022-10-22T22:55:31.984Z,9.18
2022-10-22T22:57:59.011Z,4.43
2022-10-22T23:00:26.022Z,3.30
2022-10-22T23:02:56.107Z,3.35
2022-10-22T23:05:22.861Z,4.78
2022-10-22T23:07:49.601Z,7.30
2022-10-22T23:10:16.486Z,8.63
2022-10-22T23:12:44.322Z,6.93
2022-10-22T23:15:11.437Z,5.43
2022-10-22T23:17:38.600Z,9.52
2022-10-22T23:20:06.066Z,4.60
2022-10-22T23:22:32.844Z,2.55
2022-10-22T23:24:59.603Z,7.60
2022-10-22T23:27:26.341Z,4.15
2022-10-22T23:29:53.064Z,6.55
2022-10-22T23:32:20.190Z,6.43
2022-10-22T23:34:46.936Z,5.55
2022-10-22T23:37:13.759Z,6.78
2022-10-22T23:39:40.698Z,6.57
2022-10-22T23:42:07.548Z,7.13
2022-10-22T23:44:34.374Z,3.25
2022-10-22T23:47:01.140Z,7.13
2022-10-22T23:49:27.956Z,3.28
2022-10-22T23:51:54.698Z,2.53
2022-10-22T23:54:21.442Z,5.85
2022-10-22T23:56:48.185Z,4.13
2022-10-22T23:59:15.983Z,5.07
